createdAt,value
2022-09-23T00:01:07.937Z,1.30
2022-09-23T00:03:37.393Z,1.30
2022-09-23T00:06:12.850Z,1.35
2022-09-23T00:08:41.022Z,1.30
2022-09-23T00:11:20.651Z,1.30
2022-09-23T00:13:49.527Z,0.85
2022-09-23T00:16:23.639Z,1.33
2022-09-23T00:18:50.956Z,1.23
2022-09-23T00:21:20.136Z,1.33
2022-09-23T00:23:47.374Z,1.30
2022-09-23T00:26:16.275Z,1.20
2022-09-23T00:28:43.425Z,1.63
2022-09-23T00:31:22.928Z,1.58
2022-09-23T00:33:58.585Z,1.60
2022-09-23T00:36:26.994Z,1.52
2022-09-23T00:38:54.928Z,0.95
2022-09-23T00:41:22.125Z,1.50
2022-09-23T00:43:57.054Z,1.10
2022-09-23T00:46:31.457Z,1.95
2022-09-23T00:49:12.889Z,1.52
2022-09-23T00:51:55.331Z,1.42
2022-09-23T00:54:25.930Z,1.40
2022-09-23T00:56:53.153Z,1.08
2022-09-23T00:59:20.786Z,1.42
2022-09-23T01:01:50.276Z,1.40
2022-09-23T01:04:17.210Z,1.50
2022-09-23T01:06:44.500Z,1.30
2022-09-23T01:09:11.457Z,1.33
2022-09-23T01:12:04.197Z,1.55
2022-09-23T01:14:42.300Z,1.30
2022-09-23T01:17:35.370Z,1.80
2022-09-23T01:20:32.982Z,1.63
2022-09-23T01:23:18.308Z,1.15
2022-09-23T01:25:54.062Z,1.33
2022-09-23T01:28:33.461Z,1.73
2022-09-23T01:31:32.243Z,1.33
2022-09-23T01:34:16.136Z,1.10
2022-09-23T01:36:45.737Z,1.58
2022-09-23T01:39:23.163Z,1.20
2022-09-23T01:41:59.163Z,1.48
2022-09-23T01:44:35.134Z,1.40
2022-09-23T01:47:17.858Z,1.27
2022-09-23T01:50:24.602Z,1.65
2022-09-23T01:52:54.921Z,1.13
2022-09-23T01:55:34.091Z,1.48
2022-09-23T01:58:07.762Z,1.45
2022-09-23T02:00:40.881Z,1.50
2022-09-23T02:03:15.538Z,1.30
2022-09-23T02:05:48.257Z,1.52
2022-09-23T02:08:21.293Z,1.20
2022-09-23T02:10:56.621Z,1.10
2022-09-23T02:13:29.179Z,1.33
2022-09-23T02:16:01.450Z,1.90
2022-09-23T02:18:37.675Z,1.55
2022-09-23T02:21:08.783Z,1.35
2022-09-23T02:23:43.216Z,1.95
2022-09-23T02:26:28.234Z,1.80
2022-09-23T02:29:19.818Z,1.83
2022-09-23T02:32:18.321Z,1.58
2022-09-23T02:35:11.694Z,1.33
2022-09-23T02:37:57.267Z,1.73
2022-09-23T02:40:51.148Z,1.30
2022-09-23T02:43:47.432Z,1.52
2022-09-23T02:46:15.602Z,1.40
2022-09-23T02:49:22.859Z,1.33
2022-09-23T02:51:50.912Z,1.55
2022-09-23T02:54:24.158Z,1.27
2022-09-23T02:56:52.605Z,1.58
2022-09-23T02:59:22.606Z,1.38
2022-09-23T03:02:20.702Z,0.98
2022-09-23T03:05:09.881Z,1.30
2022-09-23T03:08:25.823Z,1.58
2022-09-23T03:11:06.275Z,1.20
2022-09-23T03:13:51.361Z,1.63
2022-09-23T03:16:34.693Z,1.55
2022-09-23T03:19:20.055Z,1.45
2022-09-23T03:22:18.558Z,1.40
2022-09-23T03:24:51.829Z,1.50
2022-09-23T03:27:26.955Z,1.42
2022-09-23T03:29:55.442Z,1.40
2022-09-23T03:32:27.572Z,1.80
2022-09-23T03:34:59.035Z,1.50
2022-09-23T03:37:55.513Z,1.70
2022-09-23T03:40:32.735Z,1.80
2022-09-23T03:43:01.593Z,1.55
2022-09-23T03:45:32.756Z,1.48
2022-09-23T03:48:00.243Z,1.60
2022-09-23T03:50:27.943Z,1.50
2022-09-23T03:52:55.816Z,1.23
2022-09-23T03:55:22.745Z,1.45
2022-09-23T03:57:49.697Z,1.40
2022-09-23T04:00:16.740Z,1.70
2022-09-23T04:02:44.249Z,1.48
2022-09-23T04:05:12.716Z,1.60
2022-09-23T04:07:39.751Z,1.65
2022-09-23T04:10:07.403Z,1.80
2022-09-23T04:12:34.392Z,2.05
2022-09-23T04:15:01.373Z,1.63
2022-09-23T04:17:28.474Z,1.40
2022-09-23T04:19:55.331Z,1.60
2022-09-23T04:22:22.461Z,1.50
2022-09-23T04:24:49.387Z,1.77
2022-09-23T04:27:16.326Z,1.83
2022-09-23T04:29:43.254Z,1.73
2022-09-23T04:32:10.359Z,1.88
2022-09-23T04:34:37.350Z,2.08
2022-09-23T04:37:04.394Z,2.00
2022-09-23T04:39:31.363Z,1.80
2022-09-23T04:41:58.333Z,2.05
2022-09-23T04:44:28.185Z,1.92
2022-09-23T04:46:55.146Z,2.15
2022-09-23T04:49:22.108Z,2.05
2022-09-23T04:51:49.061Z,2.25
2022-09-23T04:54:16.001Z,1.98
2022-09-23T04:56:43.027Z,1.42
2022-09-23T04:59:10.021Z,1.90
2022-09-23T05:01:38.507Z,1.83
2022-09-23T05:04:08.583Z,1.80
2022-09-23T05:06:36.483Z,2.05
2022-09-23T05:09:07.289Z,1.75
2022-09-23T05:11:35.097Z,1.45
2022-09-23T05:14:02.433Z,1.60
2022-09-23T05:16:29.869Z,1.92
2022-09-23T05:18:57.658Z,1.50
2022-09-23T05:21:27.005Z,1.60
2022-09-23T05:23:56.714Z,1.95
2022-09-23T05:26:25.780Z,1.70
2022-09-23T05:28:54.044Z,1.50
2022-09-23T05:31:26.615Z,1.35
2022-09-23T05:34:00.392Z,1.58
2022-09-23T05:36:31.221Z,1.58
2022-09-23T05:39:01.355Z,1.92
2022-09-23T05:41:28.330Z,1.92
2022-09-23T05:43:56.223Z,1.70
2022-09-23T05:46:26.452Z,2.28
2022-09-23T05:48:56.779Z,1.83
2022-09-23T05:51:30.891Z,1.48
2022-09-23T05:53:59.590Z,1.55
2022-09-23T05:56:28.640Z,1.77
2022-09-23T05:58:58.103Z,1.73
2022-09-23T06:01:28.041Z,1.60
2022-09-23T06:03:57.084Z,1.45
2022-09-23T06:06:31.065Z,1.65
2022-09-23T06:08:59.481Z,1.92
2022-09-23T06:11:27.520Z,1.85
2022-09-23T06:14:02.527Z,1.85
2022-09-23T06:16:32.411Z,1.95
2022-09-23T06:19:06.464Z,1.60
2022-09-23T06:21:36.394Z,1.88
2022-09-23T06:24:04.057Z,1.60
2022-09-23T06:26:33.995Z,1.73
2022-09-23T06:29:02.791Z,1.25
2022-09-23T06:31:30.212Z,1.50
2022-09-23T06:34:11.655Z,2.22
2022-09-23T06:36:44.414Z,2.00
2022-09-23T06:39:12.959Z,2.05
2022-09-23T06:41:39.878Z,1.90
2022-09-23T06:44:12.286Z,2.28
2022-09-23T06:46:39.228Z,2.20
2022-09-23T06:49:06.502Z,2.63
2022-09-23T06:51:33.520Z,2.38
2022-09-23T06:54:00.596Z,1.90
2022-09-23T06:56:27.761Z,1.80
2022-09-23T06:58:54.897Z,2.15
2022-09-23T07:01:22.930Z,2.88
2022-09-23T07:03:50.217Z,1.88
2022-09-23T07:06:17.784Z,1.77
2022-09-23T07:08:47.207Z,2.33
2022-09-23T07:11:15.869Z,2.63
2022-09-23T07:13:43.563Z,1.98
2022-09-23T07:16:11.715Z,2.40
2022-09-23T07:18:39.615Z,2.00
2022-09-23T07:21:15.428Z,1.33
2022-09-23T07:23:51.451Z,1.42
2022-09-23T07:26:19.426Z,1.67
2022-09-23T07:28:46.585Z,2.10
2022-09-23T07:31:18.230Z,1.40
2022-09-23T07:33:49.285Z,1.42
2022-09-23T07:36:18.762Z,1.02
2022-09-23T07:38:47.462Z,1.48
2022-09-23T07:41:17.850Z,0.98
2022-09-23T07:43:46.195Z,1.52
2022-09-23T07:46:16.935Z,1.23
2022-09-23T07:48:45.974Z,1.10
2022-09-23T07:51:19.097Z,1.00
2022-09-23T07:53:51.323Z,0.98
2022-09-23T07:56:19.627Z,0.93
2022-09-23T07:59:00.341Z,0.93
2022-09-23T08:01:29.847Z,0.93
2022-09-23T08:03:58.667Z,0.70
2022-09-23T08:06:26.315Z,1.08
2022-09-23T08:08:53.714Z,0.75
2022-09-23T08:11:20.807Z,0.70
2022-09-23T08:13:47.908Z,1.30
2022-09-23T08:16:14.919Z,0.70
2022-09-23T08:18:45.413Z,0.70
2022-09-23T08:21:12.899Z,0.82
2022-09-23T08:23:39.872Z,0.68
2022-09-23T08:26:13.935Z,0.68
2022-09-23T08:28:48.062Z,0.60
2022-09-23T08:31:15.406Z,0.90
2022-09-23T08:33:42.340Z,0.63
2022-09-23T08:36:09.294Z,1.10
2022-09-23T08:38:36.387Z,0.75
2022-09-23T08:41:18.396Z,0.98
2022-09-23T08:43:50.759Z,0.82
2022-09-23T08:46:28.034Z,0.70
2022-09-23T08:48:56.008Z,0.80
2022-09-23T08:51:29.574Z,1.00
2022-09-23T08:53:58.296Z,1.00
2022-09-23T08:56:25.237Z,1.02
2022-09-23T08:59:07.934Z,1.10
2022-09-23T09:01:47.387Z,0.90
2022-09-23T09:04:16.332Z,0.90
2022-09-23T09:07:07.630Z,0.82
2022-09-23T09:09:47.216Z,1.40
2022-09-23T09:12:16.600Z,2.20
2022-09-23T09:14:53.869Z,1.02
2022-09-23T09:17:35.735Z,0.90
2022-09-23T09:20:18.999Z,0.85
2022-09-23T09:23:00.621Z,0.98
2022-09-23T09:25:39.940Z,1.20
2022-09-23T09:28:41.813Z,1.00
2022-09-23T09:31:27.144Z,1.20
2022-09-23T09:34:05.162Z,0.85
2022-09-23T09:36:53.078Z,1.00
2022-09-23T09:39:22.963Z,0.70
2022-09-23T09:41:59.597Z,0.80
2022-09-23T10:17:33.500Z,0.88
2022-09-23T10:20:06.947Z,0.90
2022-09-23T10:22:39.162Z,0.80
2022-09-23T10:25:10.711Z,0.93
2022-09-23T10:27:38.922Z,1.15
2022-09-23T10:30:23.633Z,1.08
2022-09-23T10:32:53.200Z,0.90
2022-09-23T10:35:23.130Z,0.88
2022-09-23T10:37:55.145Z,1.00
2022-09-23T10:40:51.547Z,0.80
2022-09-23T10:43:52.194Z,0.82
2022-09-23T10:46:39.660Z,1.30
2022-09-23T10:49:44.368Z,0.80
2022-09-23T10:52:35.293Z,1.05
2022-09-23T10:55:09.328Z,1.33
2022-09-23T10:57:41.751Z,0.88
2022-09-23T11:00:22.450Z,1.00
2022-09-23T11:03:01.276Z,0.88
2022-09-23T11:05:46.242Z,0.85
2022-09-23T11:08:37.806Z,0.50
2022-09-23T11:11:41.841Z,0.88
2022-09-23T11:14:34.165Z,0.52
2022-09-23T11:17:30.044Z,0.80
2022-09-23T11:20:15.579Z,0.90
2022-09-23T11:23:12.137Z,0.73
2022-09-23T11:26:01.747Z,0.70
2022-09-23T11:28:50.769Z,1.02
2022-09-23T11:31:30.234Z,0.75
2022-09-23T11:34:26.769Z,0.68
2022-09-23T11:37:02.320Z,0.80
2022-09-23T11:39:41.900Z,1.20
2022-09-23T11:42:18.033Z,0.93
2022-09-23T11:44:51.916Z,0.80
2022-09-23T11:47:44.723Z,1.00
2022-09-23T11:50:32.801Z,1.15
2022-09-23T11:53:08.778Z,0.82
2022-09-23T11:55:55.105Z,1.25
2022-09-23T11:58:31.793Z,0.98
2022-09-23T12:01:06.885Z,1.00
2022-09-23T12:03:51.092Z,0.88
2022-09-23T12:06:32.461Z,1.30
2022-09-23T12:09:07.377Z,1.48
2022-09-23T12:11:44.131Z,0.80
2022-09-23T12:16:45.399Z,0.98
2022-09-23T12:19:36.792Z,1.15
2022-09-23T12:22:25.701Z,1.27
2022-09-23T12:25:53.889Z,1.30
2022-09-23T12:28:38.519Z,0.60
2022-09-23T12:31:11.964Z,0.60
2022-09-23T12:33:39.108Z,0.60
2022-09-23T12:36:12.348Z,0.88
2022-09-23T12:38:54.948Z,0.65
2022-09-23T12:41:35.457Z,0.47
2022-09-23T12:44:37.749Z,0.50
2022-09-23T12:47:37.104Z,0.52
2022-09-23T12:50:42.856Z,0.90
2022-09-23T12:53:34.118Z,0.85
2022-09-23T12:56:17.294Z,0.80
2022-09-23T12:58:44.118Z,0.93
2022-09-23T13:01:21.142Z,1.00
2022-09-23T13:04:10.350Z,1.10
2022-09-23T13:06:57.499Z,0.90
2022-09-23T13:09:31.837Z,0.73
2022-09-23T13:12:03.588Z,0.77
2022-09-23T13:14:33.403Z,0.90
2022-09-23T13:17:00.766Z,0.88
2022-09-23T13:19:27.822Z,0.75
2022-09-23T13:21:54.640Z,0.90
2022-09-23T13:24:25.162Z,0.70
2022-09-23T13:26:57.418Z,0.70
2022-09-23T13:29:28.635Z,1.00
2022-09-23T13:31:58.033Z,0.90
2022-09-23T13:34:32.921Z,0.82
2022-09-23T13:37:22.030Z,0.70
2022-09-23T13:39:49.953Z,1.25
2022-09-23T13:42:37.950Z,0.70
2022-09-23T13:45:05.281Z,0.65
2022-09-23T13:47:35.615Z,0.60
2022-09-23T13:50:02.939Z,0.80
2022-09-23T13:52:33.044Z,0.70
2022-09-23T13:55:00.014Z,0.98
2022-09-23T13:57:33.903Z,0.80
2022-09-23T14:00:35.615Z,0.70
2022-09-23T14:03:16.015Z,1.00
2022-09-23T14:05:43.495Z,0.90
2022-09-23T14:08:10.614Z,0.80
2022-09-23T14:10:43.005Z,0.80
2022-09-23T14:13:26.054Z,1.00
2022-09-23T14:15:56.457Z,1.27
2022-09-23T14:18:36.659Z,0.93
2022-09-23T14:21:03.964Z,0.75
2022-09-23T14:23:31.136Z,0.93
2022-09-23T14:25:59.236Z,1.05
2022-09-23T14:28:27.892Z,1.08
2022-09-23T14:30:58.517Z,1.25
2022-09-23T14:33:28.683Z,1.00
2022-09-23T14:36:03.118Z,1.10
2022-09-23T14:38:49.468Z,1.00
2022-09-23T14:41:38.296Z,1.00
2022-09-23T14:44:07.215Z,0.85
2022-09-23T14:46:37.227Z,1.20
2022-09-23T14:49:16.783Z,0.90
2022-09-23T14:51:56.167Z,1.05
2022-09-23T14:54:36.356Z,1.10
2022-09-23T14:57:25.206Z,1.10
2022-09-23T15:00:18.322Z,0.82
2022-09-23T15:02:58.545Z,0.88
2022-09-23T15:05:47.896Z,0.90
2022-09-23T15:08:20.312Z,0.90
2022-09-23T15:10:48.127Z,1.10
2022-09-23T15:13:22.669Z,1.52
2022-09-23T15:15:53.595Z,1.55
2022-09-23T15:18:33.539Z,1.20
2022-09-23T15:21:07.831Z,1.45
2022-09-23T15:23:58.655Z,1.63
2022-09-23T15:26:47.268Z,1.52
2022-09-23T15:29:14.248Z,2.08
2022-09-23T15:31:41.348Z,1.38
2022-09-23T15:34:11.035Z,1.73
2022-09-23T15:36:38.724Z,1.63
2022-09-23T15:39:08.759Z,1.50
2022-09-23T15:41:35.764Z,1.20
2022-09-23T15:44:13.799Z,1.60
2022-09-23T15:46:46.444Z,1.52
2022-09-23T15:49:28.930Z,1.00
2022-09-23T15:51:59.698Z,1.70
2022-09-23T15:54:28.324Z,1.10
2022-09-23T15:56:56.493Z,1.27
2022-09-23T15:59:24.255Z,1.52
2022-09-23T16:01:52.490Z,1.73
2022-09-23T16:04:19.894Z,1.40
2022-09-23T16:06:48.447Z,1.40
2022-09-23T16:09:16.125Z,1.50
2022-09-23T16:11:46.437Z,1.30
2022-09-23T16:14:15.962Z,1.30
2022-09-23T16:16:45.238Z,1.40
2022-09-23T16:19:12.707Z,1.20
2022-09-23T16:21:44.749Z,1.27
2022-09-23T16:24:17.280Z,1.40
2022-09-23T16:26:45.271Z,1.30
2022-09-23T16:29:12.364Z,1.80
2022-09-23T16:31:39.732Z,2.42
2022-09-23T16:34:07.058Z,1.70
2022-09-23T16:36:40.687Z,2.28
2022-09-23T16:39:10.951Z,1.45
2022-09-23T16:41:38.365Z,1.65
2022-09-23T16:44:07.601Z,1.88
2022-09-23T16:46:34.936Z,1.48
2022-09-23T16:49:01.911Z,1.23
2022-09-23T16:51:32.228Z,1.10
2022-09-23T16:54:00.253Z,0.88
2022-09-23T16:56:29.309Z,1.27
2022-09-23T16:58:57.129Z,0.90
2022-09-23T17:01:44.462Z,0.98
2022-09-23T17:04:12.801Z,0.70
2022-09-23T17:06:58.156Z,0.90
2022-09-23T17:09:27.975Z,0.93
2022-09-23T17:12:12.048Z,0.82
2022-09-23T17:14:39.002Z,1.00
2022-09-23T17:17:06.755Z,1.30
2022-09-23T17:19:34.620Z,1.17
2022-09-23T17:22:01.578Z,1.20
2022-09-23T17:24:28.510Z,1.52
2022-09-23T17:26:55.526Z,1.73
2022-09-23T17:29:22.456Z,1.55
2022-09-23T17:31:49.691Z,1.50
2022-09-23T17:34:18.840Z,1.13
2022-09-23T17:36:46.146Z,1.92
2022-09-23T17:39:13.023Z,1.42
2022-09-23T17:41:40.354Z,1.50
2022-09-23T17:44:11.126Z,1.65
2022-09-23T17:46:38.126Z,1.38
2022-09-23T17:49:05.635Z,2.00
2022-09-23T17:51:33.422Z,1.98
2022-09-23T17:54:00.333Z,1.60
2022-09-23T17:56:30.045Z,2.30
2022-09-23T17:59:00.818Z,2.08
2022-09-23T18:01:28.183Z,1.77
2022-09-23T18:03:56.994Z,1.70
2022-09-23T18:06:26.757Z,1.50
2022-09-23T18:08:54.857Z,4.28
2022-09-23T18:11:24.239Z,1.63
2022-09-23T18:13:59.267Z,1.50
2022-09-23T18:16:29.972Z,1.73
2022-09-23T18:19:01.831Z,1.50
2022-09-23T18:21:32.660Z,2.70
2022-09-23T18:24:21.674Z,3.30
2022-09-23T18:26:49.815Z,3.50
2022-09-23T18:29:17.420Z,3.40
2022-09-23T18:31:45.216Z,3.20
2022-09-23T18:34:15.261Z,2.58
2022-09-23T18:36:42.323Z,2.17
2022-09-23T18:39:09.617Z,2.35
2022-09-23T18:41:36.661Z,2.30
2022-09-23T18:44:04.616Z,2.45
2022-09-23T18:46:31.964Z,3.05
2022-09-23T18:49:18.374Z,2.92
2022-09-23T18:51:55.006Z,3.13
2022-09-23T18:54:23.814Z,3.13
2022-09-23T18:56:52.899Z,2.60
2022-09-23T18:59:23.979Z,2.40
2022-09-23T19:01:51.537Z,2.50
2022-09-23T19:04:20.625Z,3.13
2022-09-23T19:06:48.191Z,2.75
2022-09-23T19:09:16.075Z,3.22
2022-09-23T19:11:44.442Z,3.20
2022-09-23T19:14:12.835Z,3.25
2022-09-23T19:16:40.898Z,2.80
2022-09-23T19:19:08.371Z,2.72
2022-09-23T19:21:35.460Z,3.40
2022-09-23T19:24:05.205Z,3.63
2022-09-23T19:26:38.904Z,3.92
2022-09-23T19:29:08.380Z,4.55
2022-09-23T19:31:40.600Z,5.00
2022-09-23T19:34:19.700Z,4.70
2022-09-23T19:36:47.818Z,4.57
2022-09-23T19:39:18.690Z,4.65
2022-09-23T19:41:46.394Z,4.45
2022-09-23T19:44:13.482Z,4.65
2022-09-23T19:46:44.550Z,4.53
2022-09-23T19:49:12.085Z,3.10
2022-09-23T19:51:39.249Z,3.63
2022-09-23T19:54:07.889Z,2.88
2022-09-23T19:56:35.444Z,3.03
2022-09-23T19:59:03.307Z,2.72
2022-09-23T20:01:32.133Z,2.55
2022-09-23T20:03:59.555Z,3.03
2022-09-23T20:06:30.596Z,2.97
2022-09-23T20:09:00.884Z,3.28
2022-09-23T20:11:28.944Z,3.50
2022-09-23T20:14:01.248Z,5.13
2022-09-23T20:16:32.425Z,6.07
2022-09-23T20:19:00.924Z,5.30
2022-09-23T20:21:29.553Z,4.85
2022-09-23T20:23:57.795Z,4.07
2022-09-23T20:26:43.237Z,2.88
2022-09-23T20:29:11.166Z,1.65
2022-09-23T20:31:40.508Z,2.30
2022-09-23T20:34:08.284Z,2.28
2022-09-23T20:36:35.456Z,1.95
2022-09-23T20:39:06.059Z,1.33
2022-09-23T20:41:37.612Z,2.50
2022-09-23T20:44:08.203Z,2.92
2022-09-23T20:46:36.024Z,2.53
2022-09-23T20:49:04.074Z,2.55
2022-09-23T20:51:33.411Z,2.47
2022-09-23T20:54:00.988Z,2.00
2022-09-23T20:56:29.298Z,2.20
2022-09-23T20:59:03.541Z,1.80
2022-09-23T21:01:34.917Z,2.00
2022-09-23T21:04:04.977Z,2.40
2022-09-23T21:06:34.318Z,2.60
2022-09-23T21:09:01.229Z,2.78
2022-09-23T21:11:29.247Z,2.00
2022-09-23T21:13:56.678Z,2.33
2022-09-23T21:16:24.638Z,2.47
2022-09-23T21:18:52.715Z,2.10
2022-09-23T21:21:22.355Z,2.08
2022-09-23T21:23:50.456Z,2.35
2022-09-23T21:26:20.206Z,2.35
2022-09-23T21:28:57.878Z,2.30
2022-09-23T21:31:28.147Z,2.00
2022-09-23T21:33:56.914Z,2.42
2022-09-23T21:36:24.927Z,2.50
2022-09-23T21:38:53.137Z,2.30
2022-09-23T21:41:20.409Z,2.35
2022-09-23T21:43:49.614Z,2.45
2022-09-23T21:46:20.973Z,2.58
2022-09-23T21:48:50.304Z,2.80
2022-09-23T21:51:19.378Z,2.42
2022-09-23T21:53:46.959Z,2.55
2022-09-23T21:56:20.891Z,2.80
2022-09-23T21:58:49.017Z,2.67
2022-09-23T22:01:26.183Z,2.50
2022-09-23T22:04:05.149Z,2.90
2022-09-23T22:06:32.621Z,2.47
2022-09-23T22:09:02.703Z,2.60
2022-09-23T22:11:50.505Z,2.80
2022-09-23T22:14:20.000Z,2.75
2022-09-23T22:16:46.934Z,2.58
2022-09-23T22:19:15.666Z,2.47
2022-09-23T22:21:45.403Z,2.75
2022-09-23T22:24:13.125Z,2.60
2022-09-23T22:26:42.116Z,2.50
2022-09-23T22:29:30.521Z,2.22
2022-09-23T22:32:16.691Z,2.42
2022-09-23T22:34:49.920Z,2.55
2022-09-23T22:37:21.609Z,2.17
2022-09-23T22:39:48.635Z,2.30
2022-09-23T22:42:16.211Z,1.80
2022-09-23T22:44:43.137Z,2.78
2022-09-23T22:47:10.687Z,1.75
2022-09-23T22:49:37.751Z,2.30
2022-09-23T22:52:08.103Z,1.88
2022-09-23T22:54:35.775Z,2.20
2022-09-23T22:57:09.530Z,2.10
2022-09-23T22:59:39.667Z,2.28
2022-09-23T23:02:07.794Z,2.35
2022-09-23T23:04:36.614Z,2.42
2022-09-23T23:07:03.552Z,2.40
2022-09-23T23:09:30.492Z,2.30
2022-09-23T23:11:57.340Z,2.03
2022-09-23T23:14:24.516Z,2.38
2022-09-23T23:16:51.443Z,2.80
2022-09-23T23:19:19.313Z,2.72
2022-09-23T23:21:46.431Z,2.70
2022-09-23T23:24:20.476Z,2.70
2022-09-23T23:26:48.015Z,2.17
2022-09-23T23:29:16.864Z,2.38
2022-09-23T23:31:44.157Z,2.13
2022-09-23T23:34:13.548Z,2.15
2022-09-23T23:36:41.618Z,2.38
2022-09-23T23:39:08.819Z,2.70
2022-09-23T23:41:36.439Z,2.40
2022-09-23T23:44:03.807Z,2.35
2022-09-23T23:46:32.270Z,2.50
2022-09-23T23:49:00.393Z,2.08
2022-09-23T23:51:27.938Z,2.00
2022-09-23T23:53:56.261Z,2.10
2022-09-23T23:56:25.684Z,2.30
2022-09-23T23:58:57.008Z,2.80
